sensor_id;sensor_type;location;lat;lon;timestamp;pressure;altitude;pressure_sealevel;temperature;humidity
60101;BME280;45978;53.646;55.930;2023-02-01T00:00:11;100296.88;;;-11.12;62.28
60101;BME280;45978;53.646;55.930;2023-02-01T00:01:16;100300.81;;;-11.17;62.55
60101;BME280;45978;53.646;55.930;2023-02-01T00:02:19;100293.16;;;-11.30;62.63
60101;BME280;45978;53.646;55.930;2023-02-01T00:03:20;100295.59;;;-11.32;62.82
60101;BME280;45978;53.646;55.930;2023-02-01T00:04:23;100309.34;;;-11.28;62.23
60101;BME280;45978;53.646;55.930;2023-02-01T00:05:24;100297.84;;;-11.37;62.45
60101;BME280;45978;53.646;55.930;2023-02-01T00:06:25;100292.44;;;-11.41;62.35
60101;BME280;45978;53.646;55.930;2023-02-01T00:07:26;100296.16;;;-11.36;62.54
60101;BME280;45978;53.646;55.930;2023-02-01T00:08:28;100298.03;;;-11.33;62.73
60101;BME280;45978;53.646;55.930;2023-02-01T00:09:30;100294.97;;;-11.41;62.47
60101;BME280;45978;53.646;55.930;2023-02-01T00:10:31;100299.16;;;-11.42;62.68
60101;BME280;45978;53.646;55.930;2023-02-01T00:11:34;100297.50;;;-11.41;63.25
60101;BME280;45978;53.646;55.930;2023-02-01T00:12:36;100305.44;;;-11.37;62.39
60101;BME280;45978;53.646;55.930;2023-02-01T00:13:41;100305.09;;;-11.41;63.18
60101;BME280;45978;53.646;55.930;2023-02-01T00:14:46;100280.31;;;-11.59;62.64
60101;BME280;45978;53.646;55.930;2023-02-01T00:15:49;100274.38;;;-11.59;63.01
60101;BME280;45978;53.646;55.930;2023-02-01T00:16:50;100297.00;;;-11.49;63.30
60101;BME280;45978;53.646;55.930;2023-02-01T00:17:55;100307.25;;;-11.47;63.06
60101;BME280;45978;53.646;55.930;2023-02-01T00:18:59;100294.16;;;-11.53;63.94
60101;BME280;45978;53.646;55.930;2023-02-01T00:20:02;100286.16;;;-11.60;63.11
60101;BME280;45978;53.646;55.930;2023-02-01T00:21:04;100290.38;;;-11.60;63.24
60101;BME280;45978;53.646;55.930;2023-02-01T00:22:05;100284.09;;;-11.65;63.69
60101;BME280;45978;53.646;55.930;2023-02-01T00:23:11;100296.59;;;-11.55;63.08
60101;BME280;45978;53.646;55.930;2023-02-01T00:24:14;100281.47;;;-11.67;63.60
60101;BME280;45978;53.646;55.930;2023-02-01T00:25:17;100282.34;;;-11.66;63.79
60101;BME280;45978;53.646;55.930;2023-02-01T00:26:22;100293.94;;;-11.70;63.97
60101;BME280;45978;53.646;55.930;2023-02-01T00:27:26;100299.50;;;-11.62;63.11
60101;BME280;45978;53.646;55.930;2023-02-01T00:28:27;100265.03;;;-11.85;64.22
60101;BME280;45978;53.646;55.930;2023-02-01T00:29:29;100289.75;;;-11.69;63.54
60101;BME280;45978;53.646;55.930;2023-02-01T00:30:30;100291.50;;;-11.68;63.64
60101;BME280;45978;53.646;55.930;2023-02-01T00:31:32;100291.41;;;-11.70;63.14
60101;BME280;45978;53.646;55.930;2023-02-01T00:32:36;100293.13;;;-11.69;63.64
60101;BME280;45978;53.646;55.930;2023-02-01T00:33:38;100295.78;;;-11.67;63.75
60101;BME280;45978;53.646;55.930;2023-02-01T00:34:42;100295.91;;;-11.66;64.10
60101;BME280;45978;53.646;55.930;2023-02-01T00:35:43;100307.88;;;-11.63;64.15
60101;BME280;45978;53.646;55.930;2023-02-01T00:36:48;100304.47;;;-11.64;64.46
60101;BME280;45978;53.646;55.930;2023-02-01T00:37:53;100283.19;;;-11.79;63.48
60101;BME280;45978;53.646;55.930;2023-02-01T00:38:57;100299.75;;;-11.71;63.70
60101;BME280;45978;53.646;55.930;2023-02-01T00:40:02;100297.78;;;-11.75;63.71
60101;BME280;45978;53.646;55.930;2023-02-01T00:41:06;100302.28;;;-11.71;63.41
60101;BME280;45978;53.646;55.930;2023-02-01T00:42:09;100287.16;;;-11.83;63.23
60101;BME280;45978;53.646;55.930;2023-02-01T00:43:12;100298.66;;;-11.75;64.04
60101;BME280;45978;53.646;55.930;2023-02-01T00:44:15;100304.19;;;-11.68;63.96
60101;BME280;45978;53.646;55.930;2023-02-01T00:45:16;100307.94;;;-11.75;63.84
60101;BME280;45978;53.646;55.930;2023-02-01T00:46:19;100313.78;;;-11.76;64.59
60101;BME280;45978;53.646;55.930;2023-02-01T00:47:20;100299.91;;;-11.81;63.90
60101;BME280;45978;53.646;55.930;2023-02-01T00:48:22;100317.88;;;-11.78;63.91
60101;BME280;45978;53.646;55.930;2023-02-01T00:49:23;100298.56;;;-11.89;64.01
60101;BME280;45978;53.646;55.930;2023-02-01T00:50:25;100293.28;;;-11.92;63.96
60101;BME280;45978;53.646;55.930;2023-02-01T00:51:28;100310.63;;;-11.85;63.85
60101;BME280;45978;53.646;55.930;2023-02-01T00:52:30;100308.84;;;-11.86;63.40
60101;BME280;45978;53.646;55.930;2023-02-01T00:53:32;100311.50;;;-11.85;63.58
60101;BME280;45978;53.646;55.930;2023-02-01T00:54:33;100308.78;;;-11.88;63.82
60101;BME280;45978;53.646;55.930;2023-02-01T00:55:35;100288.78;;;-11.97;63.54
60101;BME280;45978;53.646;55.930;2023-02-01T00:56:37;100307.88;;;-11.88;64.11
60101;BME280;45978;53.646;55.930;2023-02-01T00:57:38;100300.97;;;-11.91;64.01
60101;BME280;45978;53.646;55.930;2023-02-01T00:58:39;100295.69;;;-11.94;64.00
60101;BME280;45978;53.646;55.930;2023-02-01T00:59:42;100304.38;;;-11.90;64.47
60101;BME280;45978;53.646;55.930;2023-02-01T01:00:45;100307.03;;;-11.89;63.99
60101;BME280;45978;53.646;55.930;2023-02-01T01:01:53;100302.75;;;-11.90;63.87
60101;BME280;45978;53.646;55.930;2023-02-01T01:02:54;100301.31;;;-11.98;63.97
60101;BME280;45978;53.646;55.930;2023-02-01T01:03:58;100313.63;;;-11.91;63.92
60101;BME280;45978;53.646;55.930;2023-02-01T01:04:59;100315.06;;;-11.94;64.14
60101;BME280;45978;53.646;55.930;2023-02-01T01:06:03;100307.47;;;-11.94;63.77
60101;BME280;45978;53.646;55.930;2023-02-01T01:07:05;100297.94;;;-11.99;64.44
60101;BME280;45978;53.646;55.930;2023-02-01T01:08:06;100309.72;;;-11.99;64.39
60101;BME280;45978;53.646;55.930;2023-02-01T01:09:15;100308.41;;;-12.06;64.09
60101;BME280;45978;53.646;55.930;2023-02-01T01:10:19;100300.78;;;-12.06;64.42
60101;BME280;45978;53.646;55.930;2023-02-01T01:11:26;100311.16;;;-12.03;64.18
60101;BME280;45978;53.646;55.930;2023-02-01T01:12:28;100301.75;;;-12.17;64.90
60101;BME280;45978;53.646;55.930;2023-02-01T01:13:31;100303.47;;;-12.16;64.63
60101;BME280;45978;53.646;55.930;2023-02-01T01:14:34;100299.97;;;-12.18;64.44
60101;BME280;45978;53.646;55.930;2023-02-01T01:15:37;100305.44;;;-12.12;64.63
60101;BME280;45978;53.646;55.930;2023-02-01T01:16:42;100301.94;;;-12.14;65.13
60101;BME280;45978;53.646;55.930;2023-02-01T01:17:45;100302.72;;;-12.15;64.48
60101;BME280;45978;53.646;55.930;2023-02-01T01:18:48;100302.16;;;-12.11;64.99
60101;BME280;45978;53.646;55.930;2023-02-01T01:19:49;100307.41;;;-12.08;65.24
60101;BME280;45978;53.646;55.930;2023-02-01T01:20:50;100300.50;;;-12.10;65.46
60101;BME280;45978;53.646;55.930;2023-02-01T01:21:52;100307.97;;;-12.12;65.18
60101;BME280;45978;53.646;55.930;2023-02-01T01:22:53;100289.66;;;-12.21;65.48
60101;BME280;45978;53.646;55.930;2023-02-01T01:23:54;100311.28;;;-12.13;65.34
60101;BME280;45978;53.646;55.930;2023-02-01T01:24:56;100307.09;;;-12.12;65.28
60101;BME280;45978;53.646;55.930;2023-02-01T01:25:59;100317.34;;;-12.11;65.79
60101;BME280;45978;53.646;55.930;2023-02-01T01:27:01;100309.53;;;-12.14;65.02
60101;BME280;45978;53.646;55.930;2023-02-01T01:28:03;100313.16;;;-12.10;65.11
60101;BME280;45978;53.646;55.930;2023-02-01T01:29:09;100319.88;;;-12.11;65.03
60101;BME280;45978;53.646;55.930;2023-02-01T01:30:12;100290.41;;;-12.22;65.13
60101;BME280;45978;53.646;55.930;2023-02-01T01:31:15;100290.84;;;-12.28;65.44
60101;BME280;45978;53.646;55.930;2023-02-01T01:32:18;100312.50;;;-12.20;65.25
60101;BME280;45978;53.646;55.930;2023-02-01T01:33:19;100323.94;;;-12.13;65.36
60101;BME280;45978;53.646;55.930;2023-02-01T01:34:21;100322.97;;;-12.15;65.43
60101;BME280;45978;53.646;55.930;2023-02-01T01:35:29;100321.06;;;-12.18;65.26
60101;BME280;45978;53.646;55.930;2023-02-01T01:36:30;100315.72;;;-12.22;65.06
60101;BME280;45978;53.646;55.930;2023-02-01T01:37:32;100323.59;;;-12.18;65.37
60101;BME280;45978;53.646;55.930;2023-02-01T01:38:34;100317.47;;;-12.21;64.96
60101;BME280;45978;53.646;55.930;2023-02-01T01:39:36;100317.56;;;-12.20;65.93
60101;BME280;45978;53.646;55.930;2023-02-01T01:40:37;100323.31;;;-12.22;64.93
60101;BME280;45978;53.646;55.930;2023-02-01T01:41:39;100327.59;;;-12.21;65.83
60101;BME280;45978;53.646;55.930;2023-02-01T01:42:49;100317.13;;;-12.26;65.33
60101;BME280;45978;53.646;55.930;2023-02-01T01:43:57;100332.00;;;-12.19;65.43
60101;BME280;45978;53.646;55.930;2023-02-01T01:46:44;100326.94;;;-12.30;65.48
60101;BME280;45978;53.646;55.930;2023-02-01T01:47:48;100339.16;;;-12.25;65.35
60101;BME280;45978;53.646;55.930;2023-02-01T01:49:16;100322.34;;;-12.36;65.33
60101;BME280;45978;53.646;55.930;2023-02-01T01:50:22;100336.31;;;-12.29;65.45
60101;BME280;45978;53.646;55.930;2023-02-01T01:51:26;100305.53;;;-12.47;65.98
60101;BME280;45978;53.646;55.930;2023-02-01T01:52:29;100307.72;;;-12.52;65.76
60101;BME280;45978;53.646;55.930;2023-02-01T01:53:35;100321.59;;;-12.47;65.71
60101;BME280;45978;53.646;55.930;2023-02-01T01:54:42;100318.50;;;-12.43;65.72
60101;BME280;45978;53.646;55.930;2023-02-01T01:55:46;100347.19;;;-12.30;65.85
60101;BME280;45978;53.646;55.930;2023-02-01T01:56:52;100312.22;;;-12.48;65.96
60101;BME280;45978;53.646;55.930;2023-02-01T01:57:59;100335.41;;;-12.30;65.77
60101;BME280;45978;53.646;55.930;2023-02-01T01:59:02;100332.56;;;-12.34;65.90
60101;BME280;45978;53.646;55.930;2023-02-01T02:00:08;100337.50;;;-12.36;65.81
60101;BME280;45978;53.646;55.930;2023-02-01T02:01:16;100331.59;;;-12.37;65.98
60101;BME280;45978;53.646;55.930;2023-02-01T02:02:17;100336.41;;;-12.40;65.64
60101;BME280;45978;53.646;55.930;2023-02-01T02:03:22;100341.03;;;-12.34;66.57
60101;BME280;45978;53.646;55.930;2023-02-01T02:04:24;100322.47;;;-12.46;65.66
60101;BME280;45978;53.646;55.930;2023-02-01T02:05:28;100336.97;;;-12.44;65.72
60101;BME280;45978;53.646;55.930;2023-02-01T02:06:47;100324.13;;;-12.47;65.65
60101;BME280;45978;53.646;55.930;2023-02-01T02:07:53;100321.59;;;-12.47;66.29
60101;BME280;45978;53.646;55.930;2023-02-01T02:08:54;100314.75;;;-12.48;65.96
60101;BME280;45978;53.646;55.930;2023-02-01T02:10:00;100341.16;;;-12.32;65.98
60101;BME280;45978;53.646;55.930;2023-02-01T02:11:04;100322.03;;;-12.41;66.31
60101;BME280;45978;53.646;55.930;2023-02-01T02:12:05;100334.31;;;-12.33;65.73
60101;BME280;45978;53.646;55.930;2023-02-01T02:13:14;100329.72;;;-12.39;66.14
60101;BME280;45978;53.646;55.930;2023-02-01T02:14:21;100328.81;;;-12.40;66.17
60101;BME280;45978;53.646;55.930;2023-02-01T02:16:08;100323.78;;;-12.40;65.59
60101;BME280;45978;53.646;55.930;2023-02-01T02:17:28;100327.19;;;-12.39;65.86
60101;BME280;45978;53.646;55.930;2023-02-01T02:20:26;100337.31;;;-12.39;65.78
60101;BME280;45978;53.646;55.930;2023-02-01T02:23:21;100334.69;;;-12.41;66.87
60101;BME280;45978;53.646;55.930;2023-02-01T02:26:02;100333.88;;;-12.40;66.44
60101;BME280;45978;53.646;55.930;2023-02-01T02:34:47;100336.00;;;-12.69;66.42
60101;BME280;45978;53.646;55.930;2023-02-01T02:36:26;100349.97;;;-12.74;66.40
60101;BME280;45978;53.646;55.930;2023-02-01T02:37:42;100344.00;;;-12.87;66.49
60101;BME280;45978;53.646;55.930;2023-02-01T02:40:11;100354.34;;;-12.96;66.87
60101;BME280;45978;53.646;55.930;2023-02-01T02:41:20;100349.84;;;-13.00;66.76
60101;BME280;45978;53.646;55.930;2023-02-01T02:42:53;100331.69;;;-13.18;66.82
60101;BME280;45978;53.646;55.930;2023-02-01T02:46:16;100333.22;;;-13.20;67.19
60101;BME280;45978;53.646;55.930;2023-02-01T02:52:18;100341.22;;;-13.25;67.85
60101;BME280;45978;53.646;55.930;2023-02-01T02:55:14;100344.63;;;-13.25;67.72
60101;BME280;45978;53.646;55.930;2023-02-01T02:56:16;100313.44;;;-13.37;68.06
60101;BME280;45978;53.646;55.930;2023-02-01T02:57:40;100323.69;;;-13.36;68.10
60101;BME280;45978;53.646;55.930;2023-02-01T02:59:02;100346.59;;;-13.21;67.92
60101;BME280;45978;53.646;55.930;2023-02-01T03:00:28;100332.75;;;-13.26;68.13
60101;BME280;45978;53.646;55.930;2023-02-01T03:01:49;100329.81;;;-13.32;68.33
60101;BME280;45978;53.646;55.930;2023-02-01T03:03:11;100341.09;;;-13.27;68.44
60101;BME280;45978;53.646;55.930;2023-02-01T03:04:34;100339.91;;;-13.32;68.43
60101;BME280;45978;53.646;55.930;2023-02-01T03:05:44;100345.94;;;-13.30;68.61
60101;BME280;45978;53.646;55.930;2023-02-01T03:06:46;100342.84;;;-13.38;68.32
60101;BME280;45978;53.646;55.930;2023-02-01T03:08:04;100345.38;;;-13.38;68.48
60101;BME280;45978;53.646;55.930;2023-02-01T03:09:13;100337.34;;;-13.44;68.78
60101;BME280;45978;53.646;55.930;2023-02-01T03:10:44;100348.56;;;-13.40;68.78
60101;BME280;45978;53.646;55.930;2023-02-01T03:11:54;100338.78;;;-13.47;68.91
60101;BME280;45978;53.646;55.930;2023-02-01T03:13:32;100349.66;;;-13.48;69.11
60101;BME280;45978;53.646;55.930;2023-02-01T03:14:38;100322.50;;;-13.63;68.99
60101;BME280;45978;53.646;55.930;2023-02-01T03:17:13;100346.97;;;-13.62;69.17
60101;BME280;45978;53.646;55.930;2023-02-01T03:18:26;100331.91;;;-13.72;68.84
60101;BME280;45978;53.646;55.930;2023-02-01T03:19:37;100343.09;;;-13.68;68.56
60101;BME280;45978;53.646;55.930;2023-02-01T03:20:47;100332.63;;;-13.73;69.09
60101;BME280;45978;53.646;55.930;2023-02-01T03:22:11;100317.69;;;-13.82;69.01
60101;BME280;45978;53.646;55.930;2023-02-01T03:23:16;100330.78;;;-13.76;68.98
60101;BME280;45978;53.646;55.930;2023-02-01T03:25:35;100339.22;;;-13.75;69.46
60101;BME280;45978;53.646;55.930;2023-02-01T03:26:38;100330.44;;;-13.80;69.24
60101;BME280;45978;53.646;55.930;2023-02-01T03:27:52;100328.31;;;-13.86;69.25
60101;BME280;45978;53.646;55.930;2023-02-01T03:28:57;100342.41;;;-13.78;69.36
60101;BME280;45978;53.646;55.930;2023-02-01T03:31:19;100322.81;;;-13.92;69.83
60101;BME280;45978;53.646;55.930;2023-02-01T03:32:22;100341.66;;;-13.77;69.79
60101;BME280;45978;53.646;55.930;2023-02-01T03:33:25;100339.00;;;-13.78;69.69
60101;BME280;45978;53.646;55.930;2023-02-01T03:34:28;100337.22;;;-13.79;69.59
60101;BME280;45978;53.646;55.930;2023-02-01T03:36:54;100333.72;;;-13.81;69.65
60101;BME280;45978;53.646;55.930;2023-02-01T03:38:37;100328.97;;;-13.88;69.36
60101;BME280;45978;53.646;55.930;2023-02-01T03:39:57;100321.81;;;-13.94;69.24
60101;BME280;45978;53.646;55.930;2023-02-01T03:41:28;100306.50;;;-14.07;69.35
60101;BME280;45978;53.646;55.930;2023-02-01T03:42:44;100309.31;;;-14.15;69.85
60101;BME280;45978;53.646;55.930;2023-02-01T03:44:19;100315.13;;;-14.16;69.45
60101;BME280;45978;53.646;55.930;2023-02-01T03:45:24;100334.50;;;-14.04;69.28
60101;BME280;45978;53.646;55.930;2023-02-01T03:46:34;100310.75;;;-14.18;69.64
60101;BME280;45978;53.646;55.930;2023-02-01T03:47:40;100322.81;;;-14.14;69.39
60101;BME280;45978;53.646;55.930;2023-02-01T03:48:43;100325.09;;;-14.17;69.77
60101;BME280;45978;53.646;55.930;2023-02-01T03:49:49;100340.69;;;-14.11;69.31
60101;BME280;45978;53.646;55.930;2023-02-01T03:50:56;100327.50;;;-14.19;69.48
60101;BME280;45978;53.646;55.930;2023-02-01T03:51:59;100332.44;;;-14.20;69.63
60101;BME280;45978;53.646;55.930;2023-02-01T03:53:11;100309.78;;;-14.30;69.41
60101;BME280;45978;53.646;55.930;2023-02-01T03:54:19;100320.97;;;-14.27;69.75
60101;BME280;45978;53.646;55.930;2023-02-01T03:55:22;100339.69;;;-14.13;69.47
60101;BME280;45978;53.646;55.930;2023-02-01T03:56:24;100326.38;;;-14.22;69.22
60101;BME280;45978;53.646;55.930;2023-02-01T03:57:33;100346.41;;;-14.13;69.45
60101;BME280;45978;53.646;55.930;2023-02-01T03:58:36;100334.84;;;-14.22;69.27
60101;BME280;45978;53.646;55.930;2023-02-01T03:59:41;100348.03;;;-14.14;70.00
60101;BME280;45978;53.646;55.930;2023-02-01T04:00:52;100350.66;;;-14.12;69.20
60101;BME280;45978;53.646;55.930;2023-02-01T04:01:54;100349.56;;;-14.16;69.45
60101;BME280;45978;53.646;55.930;2023-02-01T04:02:55;100358.22;;;-14.12;69.25
60101;BME280;45978;53.646;55.930;2023-02-01T04:03:58;100327.34;;;-14.32;69.88
60101;BME280;45978;53.646;55.930;2023-02-01T04:05:01;100354.63;;;-14.16;69.78
60101;BME280;45978;53.646;55.930;2023-02-01T04:06:03;100354.84;;;-14.13;69.63
60101;BME280;45978;53.646;55.930;2023-02-01T04:07:04;100332.84;;;-14.26;69.58
60101;BME280;45978;53.646;55.930;2023-02-01T04:08:06;100347.78;;;-14.17;69.81
60101;BME280;45978;53.646;55.930;2023-02-01T04:09:08;100348.44;;;-14.20;69.90
60101;BME280;45978;53.646;55.930;2023-02-01T04:10:10;100367.81;;;-14.08;69.81
60101;BME280;45978;53.646;55.930;2023-02-01T04:11:11;100363.66;;;-14.08;69.33
60101;BME280;45978;53.646;55.930;2023-02-01T04:12:12;100352.31;;;-14.13;69.49
60101;BME280;45978;53.646;55.930;2023-02-01T04:13:14;100327.41;;;-14.20;69.37
60101;BME280;45978;53.646;55.930;2023-02-01T04:14:16;100374.03;;;-13.93;70.01
60101;BME280;45978;53.646;55.930;2023-02-01T04:15:21;100351.84;;;-13.97;69.88
60101;BME280;45978;53.646;55.930;2023-02-01T04:16:22;100365.19;;;-13.88;69.99
60101;BME280;45978;53.646;55.930;2023-02-01T04:17:24;100365.78;;;-13.80;70.01
60101;BME280;45978;53.646;55.930;2023-02-01T04:18:25;100372.94;;;-13.74;70.01
60101;BME280;45978;53.646;55.930;2023-02-01T04:19:26;100355.81;;;-13.79;69.64
60101;BME280;45978;53.646;55.930;2023-02-01T04:20:27;100366.22;;;-13.74;69.69
60101;BME280;45978;53.646;55.930;2023-02-01T04:21:29;100361.31;;;-13.72;69.75
60101;BME280;45978;53.646;55.930;2023-02-01T04:22:30;100363.31;;;-13.68;69.51
60101;BME280;45978;53.646;55.930;2023-02-01T04:23:35;100374.19;;;-13.58;69.56
60101;BME280;45978;53.646;55.930;2023-02-01T04:24:37;100372.66;;;-13.56;69.64
60101;BME280;45978;53.646;55.930;2023-02-01T04:25:38;100365.22;;;-13.54;69.57
60101;BME280;45978;53.646;55.930;2023-02-01T04:26:40;100374.34;;;-13.44;69.76
60101;BME280;45978;53.646;55.930;2023-02-01T04:27:41;100360.97;;;-13.43;69.28
60101;BME280;45978;53.646;55.930;2023-02-01T04:28:42;100371.13;;;-13.20;69.50
60101;BME280;45978;53.646;55.930;2023-02-01T04:29:43;100371.81;;;-12.99;69.01
60101;BME280;45978;53.646;55.930;2023-02-01T04:30:46;100326.22;;;-13.00;68.88
60101;BME280;45978;53.646;55.930;2023-02-01T04:31:47;100373.19;;;-12.45;68.83
60101;BME280;45978;53.646;55.930;2023-02-01T04:32:50;100344.75;;;-12.17;68.51
60101;BME280;45978;53.646;55.930;2023-02-01T04:33:52;100368.97;;;-11.59;68.42
60101;BME280;45978;53.646;55.930;2023-02-01T04:34:53;100359.28;;;-11.14;66.78
60101;BME280;45978;53.646;55.930;2023-02-01T04:35:54;100339.25;;;-10.71;66.21
60101;BME280;45978;53.646;55.930;2023-02-01T04:36:56;100358.41;;;-9.94;64.64
60101;BME280;45978;53.646;55.930;2023-02-01T04:37:57;100335.69;;;-9.50;63.69
60101;BME280;45978;53.646;55.930;2023-02-01T04:38:58;100361.97;;;-8.77;62.30
60101;BME280;45978;53.646;55.930;2023-02-01T04:40:00;100354.59;;;-8.26;60.57
60101;BME280;45978;53.646;55.930;2023-02-01T04:41:01;100329.47;;;-8.03;58.45
60101;BME280;45978;53.646;55.930;2023-02-01T04:42:05;100352.44;;;-7.54;56.64
60101;BME280;45978;53.646;55.930;2023-02-01T04:43:06;100347.25;;;-7.23;55.83
60101;BME280;45978;53.646;55.930;2023-02-01T04:44:16;100360.09;;;-6.87;55.09
60101;BME280;45978;53.646;55.930;2023-02-01T04:45:18;100333.31;;;-6.61;53.49
60101;BME280;45978;53.646;55.930;2023-02-01T04:46:33;100341.16;;;-6.20;53.22
60101;BME280;45978;53.646;55.930;2023-02-01T04:47:34;100323.47;;;-5.98;53.19
60101;BME280;45978;53.646;55.930;2023-02-01T04:48:36;100348.44;;;-5.53;53.53
60101;BME280;45978;53.646;55.930;2023-02-01T04:49:37;100329.25;;;-5.43;53.30
60101;BME280;45978;53.646;55.930;2023-02-01T04:50:38;100343.13;;;-5.19;51.68
60101;BME280;45978;53.646;55.930;2023-02-01T04:51:40;100319.47;;;-5.13;50.30
60101;BME280;45978;53.646;55.930;2023-02-01T04:52:41;100333.59;;;-4.81;49.64
60101;BME280;45978;53.646;55.930;2023-02-01T04:53:43;100334.84;;;-4.50;49.31
60101;BME280;45978;53.646;55.930;2023-02-01T04:54:44;100349.56;;;-4.23;47.82
60101;BME280;45978;53.646;55.930;2023-02-01T04:55:48;100351.16;;;-4.04;47.58
60101;BME280;45978;53.646;55.930;2023-02-01T04:56:50;100335.81;;;-3.80;47.24
60101;BME280;45978;53.646;55.930;2023-02-01T04:57:52;100347.88;;;-3.55;46.62
60101;BME280;45978;53.646;55.930;2023-02-01T04:58:53;100330.72;;;-3.32;46.91
60101;BME280;45978;53.646;55.930;2023-02-01T04:59:54;100344.06;;;-2.92;46.16
60101;BME280;45978;53.646;55.930;2023-02-01T05:00:56;100348.22;;;-2.70;45.18
60101;BME280;45978;53.646;55.930;2023-02-01T05:01:57;100336.94;;;-2.48;44.95
60101;BME280;45978;53.646;55.930;2023-02-01T05:02:58;100334.44;;;-2.20;44.36
60101;BME280;45978;53.646;55.930;2023-02-01T05:04:02;100336.69;;;-2.02;43.30
60101;BME280;45978;53.646;55.930;2023-02-01T05:05:04;100318.31;;;-2.14;43.02
60101;BME280;45978;53.646;55.930;2023-02-01T05:06:06;100327.25;;;-2.01;42.73
60101;BME280;45978;53.646;55.930;2023-02-01T05:07:07;100348.78;;;-1.70;42.75
60101;BME280;45978;53.646;55.930;2023-02-01T05:08:10;100346.53;;;-1.58;41.95
60101;BME280;45978;53.646;55.930;2023-02-01T05:09:11;100326.22;;;-1.49;42.23
60101;BME280;45978;53.646;55.930;2023-02-01T05:10:12;100336.25;;;-1.28;42.13
60101;BME280;45978;53.646;55.930;2023-02-01T05:11:13;100329.00;;;-1.09;41.49
60101;BME280;45978;53.646;55.930;2023-02-01T05:12:33;100341.81;;;-0.79;41.02
60101;BME280;45978;53.646;55.930;2023-02-01T05:13:53;100328.56;;;-0.58;40.18
60101;BME280;45978;53.646;55.930;2023-02-01T05:14:54;100331.84;;;-0.29;40.43
60101;BME280;45978;53.646;55.930;2023-02-01T05:15:55;100324.97;;;0.10;40.87
60101;BME280;45978;53.646;55.930;2023-02-01T05:16:56;100313.16;;;0.21;39.33
60101;BME280;45978;53.646;55.930;2023-02-01T05:17:58;100334.47;;;0.52;38.54
60101;BME280;45978;53.646;55.930;2023-02-01T05:18:59;100341.59;;;0.64;38.35
60101;BME280;45978;53.646;55.930;2023-02-01T05:20:00;100326.25;;;0.71;38.27
60101;BME280;45978;53.646;55.930;2023-02-01T05:21:03;100321.22;;;0.79;38.00
60101;BME280;45978;53.646;55.930;2023-02-01T05:22:04;100332.56;;;1.36;38.42
60101;BME280;45978;53.646;55.930;2023-02-01T05:23:06;100331.31;;;1.66;38.11
60101;BME280;45978;53.646;55.930;2023-02-01T05:24:08;100320.28;;;1.77;37.57
60101;BME280;45978;53.646;55.930;2023-02-01T05:25:20;100331.66;;;1.89;36.69
60101;BME280;45978;53.646;55.930;2023-02-01T05:26:26;100333.44;;;1.91;35.93
60101;BME280;45978;53.646;55.930;2023-02-01T05:27:29;100318.94;;;2.04;35.88
60101;BME280;45978;53.646;55.930;2023-02-01T05:28:31;100339.22;;;2.36;35.01
60101;BME280;45978;53.646;55.930;2023-02-01T05:29:34;100326.78;;;2.10;34.63
60101;BME280;45978;53.646;55.930;2023-02-01T05:30:35;100312.81;;;1.97;34.56
60101;BME280;45978;53.646;55.930;2023-02-01T05:31:37;100320.13;;;2.29;35.21
60101;BME280;45978;53.646;55.930;2023-02-01T05:32:38;100330.97;;;2.68;34.54
60101;BME280;45978;53.646;55.930;2023-02-01T05:33:40;100325.06;;;2.80;33.64
60101;BME280;45978;53.646;55.930;2023-02-01T05:34:41;100341.59;;;2.91;33.42
60101;BME280;45978;53.646;55.930;2023-02-01T05:35:42;100323.34;;;2.82;32.87
60101;BME280;45978;53.646;55.930;2023-02-01T05:36:43;100329.47;;;2.88;32.66
60101;BME280;45978;53.646;55.930;2023-02-01T05:37:44;100335.34;;;2.73;32.55
60101;BME280;45978;53.646;55.930;2023-02-01T05:38:46;100301.59;;;2.69;32.60
60101;BME280;45978;53.646;55.930;2023-02-01T05:39:47;100333.06;;;3.03;32.49
60101;BME280;45978;53.646;55.930;2023-02-01T05:40:49;100302.59;;;2.83;32.09
60101;BME280;45978;53.646;55.930;2023-02-01T05:41:50;100318.31;;;2.97;32.26
60101;BME280;45978;53.646;55.930;2023-02-01T05:42:51;100331.44;;;3.12;31.91
60101;BME280;45978;53.646;55.930;2023-02-01T05:43:52;100329.97;;;3.42;32.23
60101;BME280;45978;53.646;55.930;2023-02-01T05:44:54;100337.94;;;3.65;31.92
60101;BME280;45978;53.646;55.930;2023-02-01T05:45:55;100322.25;;;3.48;31.27
60101;BME280;45978;53.646;55.930;2023-02-01T05:46:57;100325.81;;;3.61;31.28
60101;BME280;45978;53.646;55.930;2023-02-01T05:47:58;100312.75;;;3.53;31.33
60101;BME280;45978;53.646;55.930;2023-02-01T05:48:59;100330.25;;;3.74;31.19
60101;BME280;45978;53.646;55.930;2023-02-01T05:50:00;100312.91;;;3.75;31.53
60101;BME280;45978;53.646;55.930;2023-02-01T05:51:02;100323.53;;;4.15;31.20
60101;BME280;45978;53.646;55.930;2023-02-01T05:52:03;100336.78;;;4.61;30.63
60101;BME280;45978;53.646;55.930;2023-02-01T05:53:04;100327.28;;;4.71;30.43
60101;BME280;45978;53.646;55.930;2023-02-01T05:54:08;100316.03;;;4.83;29.29
60101;BME280;45978;53.646;55.930;2023-02-01T05:55:09;100327.34;;;5.00;28.94
60101;BME280;45978;53.646;55.930;2023-02-01T05:56:10;100322.13;;;5.03;28.82
60101;BME280;45978;53.646;55.930;2023-02-01T05:57:12;100320.41;;;4.90;28.51
60101;BME280;45978;53.646;55.930;2023-02-01T05:58:13;100290.91;;;4.97;28.38
60101;BME280;45978;53.646;55.930;2023-02-01T05:59:15;100316.09;;;5.23;27.95
60101;BME280;45978;53.646;55.930;2023-02-01T06:00:16;100308.28;;;5.23;28.27
60101;BME280;45978;53.646;55.930;2023-02-01T06:01:18;100321.31;;;5.18;28.11
60101;BME280;45978;53.646;55.930;2023-02-01T06:02:19;100332.56;;;5.12;28.16
60101;BME280;45978;53.646;55.930;2023-02-01T06:03:21;100322.16;;;5.06;27.94